sensor_id;sensor_type;location;lat;lon;timestamp;pressure;altitude;pressure_sealevel;temperature;humidity
10008;BME280;5043;41.766;26.204;2022-11-20T00:01:09;100712.28;;;19.98;100.00
10008;BME280;5043;41.766;26.204;2022-11-20T00:03:35;100716.59;;;20.07;100.00
10008;BME280;5043;41.766;26.204;2022-11-20T00:06:06;100698.75;;;20.00;100.00
10008;BME280;5043;41.766;26.204;2022-11-20T00:08:32;100649.59;;;19.68;100.00
10008;BME280;5043;41.766;26.204;2022-11-20T00:11:05;100708.09;;;20.04;100.00
10008;BME280;5043;41.766;26.204;2022-11-20T00:13:32;100712.28;;;20.06;100.00
10008;BME280;5043;41.766;26.204;2022-11-20T00:16:00;100649.59;;;19.68;100.00
10008;BME280;5043;41.766;26.204;2022-11-20T00:18:26;100713.94;;;20.07;100.00
10008;BME280;5043;41.766;26.204;2022-11-20T00:20:52;100645.72;;;19.63;100.00
10008;BME280;5043;41.766;26.204;2022-11-20T00:23:17;100642.44;;;19.53;100.00
10008;BME280;5043;41.766;26.204;2022-11-20T00:25:43;100714.13;;;19.98;100.00
10008;BME280;5043;41.766;26.204;2022-11-20T00:28:08;100711.28;;;19.91;100.00
10008;BME280;5043;41.766;26.204;2022-11-20T00:30:33;100679.03;;;19.60;100.00
10008;BME280;5043;41.766;26.204;2022-11-20T00:32:59;100719.84;;;19.95;100.00
10008;BME280;5043;41.766;26.204;2022-11-20T00:35:24;100628.53;;;19.41;100.00
10008;BME280;5043;41.766;26.204;2022-11-20T00:37:50;100715.63;;;20.08;100.00
10008;BME280;5043;41.766;26.204;2022-11-20T00:40:15;100668.28;;;19.76;100.00
10008;BME280;5043;41.766;26.204;2022-11-20T00:42:41;100699.41;;;19.94;100.00
10008;BME280;5043;41.766;26.204;2022-11-20T00:45:06;100738.56;;;20.03;100.00
10008;BME280;5043;41.766;26.204;2022-11-20T00:47:32;100663.97;;;19.67;100.00
10008;BME280;5043;41.766;26.204;2022-11-20T00:49:57;100672.00;;;19.75;100.00
10008;BME280;5043;41.766;26.204;2022-11-20T00:52:23;100681.88;;;19.75;100.00
10008;BME280;5043;41.766;26.204;2022-11-20T00:54:48;100726.22;;;19.85;100.00
10008;BME280;5043;41.766;26.204;2022-11-20T00:57:13;100714.81;;;19.92;100.00
10008;BME280;5043;41.766;26.204;2022-11-20T00:59:39;100673.69;;;19.68;100.00
10008;BME280;5043;41.766;26.204;2022-11-20T01:02:04;100657.81;;;19.67;100.00
10008;BME280;5043;41.766;26.204;2022-11-20T01:04:30;100718.97;;;20.02;100.00
10008;BME280;5043;41.766;26.204;2022-11-20T01:06:55;100723.13;;;20.05;100.00
10008;BME280;5043;41.766;26.204;2022-11-20T01:09:21;100733.72;;;20.06;100.00
10008;BME280;5043;41.766;26.204;2022-11-20T01:11:46;100710.59;;;20.13;100.00
10008;BME280;5043;41.766;26.204;2022-11-20T01:14:14;100711.44;;;20.14;100.00
10008;BME280;5043;41.766;26.204;2022-11-20T01:16:45;100650.53;;;19.83;100.00
10008;BME280;5043;41.766;26.204;2022-11-20T01:19:14;100683.47;;;20.08;100.00
10008;BME280;5043;41.766;26.204;2022-11-20T01:21:41;100691.16;;;20.11;100.00
10008;BME280;5043;41.766;26.204;2022-11-20T01:24:10;100690.66;;;20.08;100.00
10008;BME280;5043;41.766;26.204;2022-11-20T01:26:38;100684.13;;;20.10;100.00
10008;BME280;5043;41.766;26.204;2022-11-20T01:29:06;100682.75;;;20.14;100.00
10008;BME280;5043;41.766;26.204;2022-11-20T01:31:36;100668.06;;;20.10;100.00
10008;BME280;5043;41.766;26.204;2022-11-20T01:34:04;100631.97;;;19.82;100.00
10008;BME280;5043;41.766;26.204;2022-11-20T01:36:31;100690.66;;;20.08;100.00
10008;BME280;5043;41.766;26.204;2022-11-20T01:38:59;100691.31;;;20.10;100.00
10008;BME280;5043;41.766;26.204;2022-11-20T01:41:27;100650.84;;;19.97;99.74
10008;BME280;5043;41.766;26.204;2022-11-20T01:44:17;100648.69;;;19.84;99.88
10008;BME280;5043;41.766;26.204;2022-11-20T01:47:01;100703.22;;;20.07;100.00
10008;BME280;5043;41.766;26.204;2022-11-20T01:49:36;100667.91;;;19.96;100.00
10008;BME280;5043;41.766;26.204;2022-11-20T01:52:13;100690.66;;;20.16;99.28
10008;BME280;5043;41.766;26.204;2022-11-20T01:54:46;100678.63;;;19.96;99.38
10008;BME280;5043;41.766;26.204;2022-11-20T01:57:13;100680.94;;;20.15;98.82
10008;BME280;5043;41.766;26.204;2022-11-20T01:59:45;100678.44;;;20.05;98.79
10008;BME280;5043;41.766;26.204;2022-11-20T02:02:12;100666.38;;;20.09;98.83
10008;BME280;5043;41.766;26.204;2022-11-20T02:04:38;100676.06;;;20.18;98.53
10008;BME280;5043;41.766;26.204;2022-11-20T02:07:04;100679.25;;;20.22;98.43
10008;BME280;5043;41.766;26.204;2022-11-20T02:09:30;100689.09;;;20.21;98.48
10008;BME280;5043;41.766;26.204;2022-11-20T02:11:57;100672.41;;;20.11;98.35
10008;BME280;5043;41.766;26.204;2022-11-20T02:14:24;100631.66;;;19.85;98.50
10008;BME280;5043;41.766;26.204;2022-11-20T02:16:50;100680.94;;;20.15;98.25
10008;BME280;5043;41.766;26.204;2022-11-20T02:19:23;100686.63;;;20.20;97.93
10008;BME280;5043;41.766;26.204;2022-11-20T02:22:03;100685.78;;;20.19;98.08
10008;BME280;5043;41.766;26.204;2022-11-20T02:24:31;100681.94;;;20.22;97.86
10008;BME280;5043;41.766;26.204;2022-11-20T02:27:17;100683.94;;;20.20;97.79
10008;BME280;5043;41.766;26.204;2022-11-20T02:30:02;100623.28;;;19.88;97.65
10008;BME280;5043;41.766;26.204;2022-11-20T02:32:31;100675.72;;;20.21;97.31
10008;BME280;5043;41.766;26.204;2022-11-20T02:34:57;100674.56;;;20.24;97.44
10008;BME280;5043;41.766;26.204;2022-11-20T02:37:23;100656.81;;;20.15;97.52
10008;BME280;5043;41.766;26.204;2022-11-20T02:39:52;100674.75;;;20.22;97.25
10008;BME280;5043;41.766;26.204;2022-11-20T02:42:18;100682.75;;;20.14;97.79
10008;BME280;5043;41.766;26.204;2022-11-20T02:44:43;100623.88;;;19.98;97.37
10008;BME280;5043;41.766;26.204;2022-11-20T02:47:09;100653.81;;;20.18;97.47
10008;BME280;5043;41.766;26.204;2022-11-20T02:49:34;100670.88;;;20.17;97.53
10008;BME280;5043;41.766;26.204;2022-11-20T02:52:00;100666.69;;;20.14;97.45
10008;BME280;5043;41.766;26.204;2022-11-20T02:54:26;100636.09;;;20.01;97.40
10008;BME280;5043;41.766;26.204;2022-11-20T02:56:51;100620.41;;;19.89;97.08
10008;BME280;5043;41.766;26.204;2022-11-20T02:59:17;100669.03;;;20.17;97.25
10008;BME280;5043;41.766;26.204;2022-11-20T03:01:42;100669.56;;;20.13;97.31
10008;BME280;5043;41.766;26.204;2022-11-20T03:04:08;100670.22;;;20.23;96.95
10008;BME280;5043;41.766;26.204;2022-11-20T03:06:33;100643.97;;;20.02;97.18
10008;BME280;5043;41.766;26.204;2022-11-20T03:08:59;100659.16;;;20.18;97.35
10008;BME280;5043;41.766;26.204;2022-11-20T03:11:24;100598.00;;;19.82;97.00
10008;BME280;5043;41.766;26.204;2022-11-20T03:13:50;100661.00;;;20.17;97.13
10008;BME280;5043;41.766;26.204;2022-11-20T03:16:18;100676.59;;;20.14;97.20
10008;BME280;5043;41.766;26.204;2022-11-20T03:18:44;100608.69;;;19.90;96.63
10008;BME280;5043;41.766;26.204;2022-11-20T03:21:12;100644.78;;;20.11;96.43
10008;BME280;5043;41.766;26.204;2022-11-20T03:23:38;100632.59;;;20.00;96.25
10008;BME280;5043;41.766;26.204;2022-11-20T03:26:15;100624.41;;;20.02;96.24
10008;BME280;5043;41.766;26.204;2022-11-20T03:28:45;100653.97;;;20.24;95.99
10008;BME280;5043;41.766;26.204;2022-11-20T03:31:14;100651.47;;;20.23;95.87
10008;BME280;5043;41.766;26.204;2022-11-20T03:33:40;100641.06;;;20.20;95.95
10008;BME280;5043;41.766;26.204;2022-11-20T03:36:12;100673.91;;;20.14;96.49
10008;BME280;5043;41.766;26.204;2022-11-20T03:38:38;100654.84;;;20.01;96.52
10008;BME280;5043;41.766;26.204;2022-11-20T03:41:06;100605.03;;;19.83;96.47
10008;BME280;5043;41.766;26.204;2022-11-20T03:43:33;100614.25;;;19.81;96.51
10008;BME280;5043;41.766;26.204;2022-11-20T03:45:59;100655.66;;;20.09;96.55
10008;BME280;5043;41.766;26.204;2022-11-20T03:48:25;100597.16;;;19.82;96.22
10008;BME280;5043;41.766;26.204;2022-11-20T03:50:51;100653.16;;;20.16;96.34
10008;BME280;5043;41.766;26.204;2022-11-20T03:53:17;100632.38;;;20.10;96.41
10008;BME280;5043;41.766;26.204;2022-11-20T03:55:42;100646.13;;;20.23;96.60
10008;BME280;5043;41.766;26.204;2022-11-20T03:58:08;100639.94;;;20.06;96.62
10008;BME280;5043;41.766;26.204;2022-11-20T04:00:35;100624.91;;;19.97;96.89
10008;BME280;5043;41.766;26.204;2022-11-20T04:03:01;100643.25;;;20.16;97.33
10008;BME280;5043;41.766;26.204;2022-11-20T04:05:27;100655.44;;;20.19;97.44
10008;BME280;5043;41.766;26.204;2022-11-20T04:07:52;100587.63;;;19.79;97.75
10008;BME280;5043;41.766;26.204;2022-11-20T04:10:18;100641.59;;;20.07;97.94
10008;BME280;5043;41.766;26.204;2022-11-20T04:12:43;100646.81;;;20.01;98.24
10008;BME280;5043;41.766;26.204;2022-11-20T04:15:09;100631.59;;;20.01;98.16
10008;BME280;5043;41.766;26.204;2022-11-20T04:17:34;100628.78;;;19.95;98.53
10008;BME280;5043;41.766;26.204;2022-11-20T04:20:00;100623.06;;;19.98;98.23
10008;BME280;5043;41.766;26.204;2022-11-20T04:22:26;100624.03;;;20.05;98.07
10008;BME280;5043;41.766;26.204;2022-11-20T04:24:52;100586.97;;;19.77;98.08
10008;BME280;5043;41.766;26.204;2022-11-20T04:27:17;100633.72;;;20.14;97.78
10008;BME280;5043;41.766;26.204;2022-11-20T04:29:43;100624.72;;;20.07;97.85
10008;BME280;5043;41.766;26.204;2022-11-20T04:32:08;100629.38;;;20.05;98.00
10008;BME280;5043;41.766;26.204;2022-11-20T04:34:34;100624.72;;;19.99;98.24
10008;BME280;5043;41.766;26.204;2022-11-20T04:36:59;100663.91;;;19.92;98.15
10008;BME280;5043;41.766;26.204;2022-11-20T04:39:25;100611.34;;;19.99;98.25
10008;BME280;5043;41.766;26.204;2022-11-20T04:41:50;100618.06;;;19.95;98.19
10008;BME280;5043;41.766;26.204;2022-11-20T04:44:38;100620.41;;;19.89;98.46
10008;BME280;5043;41.766;26.204;2022-11-20T04:47:03;100616.38;;;19.94;98.07
10008;BME280;5043;41.766;26.204;2022-11-20T04:49:29;100618.84;;;20.03;97.78
10008;BME280;5043;41.766;26.204;2022-11-20T04:51:56;100632.28;;;19.95;98.00
10008;BME280;5043;41.766;26.204;2022-11-20T04:54:22;100573.59;;;19.77;97.62
10008;BME280;5043;41.766;26.204;2022-11-20T04:56:48;100561.91;;;19.62;98.03
10008;BME280;5043;41.766;26.204;2022-11-20T04:59:14;100509.66;;;19.19;98.65
10008;BME280;5043;41.766;26.204;2022-11-20T05:01:39;100625.63;;;19.75;99.17
10008;BME280;5043;41.766;26.204;2022-11-20T05:04:04;100610.28;;;19.69;99.39
10008;BME280;5043;41.766;26.204;2022-11-20T05:06:32;100622.47;;;19.63;99.55
10008;BME280;5043;41.766;26.204;2022-11-20T05:08:58;100613.28;;;19.58;100.00
10008;BME280;5043;41.766;26.204;2022-11-20T05:11:24;100600.09;;;19.48;100.00
10008;BME280;5043;41.766;26.204;2022-11-20T05:13:50;100630.50;;;19.55;100.00
10008;BME280;5043;41.766;26.204;2022-11-20T05:16:18;100618.50;;;19.51;100.00
10008;BME280;5043;41.766;26.204;2022-11-20T05:18:45;100611.31;;;19.52;100.00
10008;BME280;5043;41.766;26.204;2022-11-20T05:21:11;100523.56;;;18.91;100.00
10008;BME280;5043;41.766;26.204;2022-11-20T05:23:37;100613.97;;;19.44;100.00
10008;BME280;5043;41.766;26.204;2022-11-20T05:26:04;100622.19;;;19.42;100.00
10008;BME280;5043;41.766;26.204;2022-11-20T05:28:31;100592.94;;;19.41;100.00
10008;BME280;5043;41.766;26.204;2022-11-20T05:31:04;100596.56;;;19.56;99.93
10008;BME280;5043;41.766;26.204;2022-11-20T05:33:30;100597.75;;;19.53;100.00
10008;BME280;5043;41.766;26.204;2022-11-20T05:35:58;100556.63;;;19.22;100.00
10008;BME280;5043;41.766;26.204;2022-11-20T05:38:24;100634.22;;;19.54;100.00
10008;BME280;5043;41.766;26.204;2022-11-20T05:40:49;100603.09;;;19.53;100.00
10008;BME280;5043;41.766;26.204;2022-11-20T05:43:14;100595.09;;;19.45;100.00
10008;BME280;5043;41.766;26.204;2022-11-20T05:45:40;100616.50;;;19.45;100.00
10008;BME280;5043;41.766;26.204;2022-11-20T05:48:05;100617.66;;;19.51;100.00
10008;BME280;5043;41.766;26.204;2022-11-20T05:50:31;100593.25;;;19.38;100.00
10008;BME280;5043;41.766;26.204;2022-11-20T05:52:59;100585.56;;;19.43;100.00
10008;BME280;5043;41.766;26.204;2022-11-20T05:55:26;100585.41;;;19.36;100.00
10008;BME280;5043;41.766;26.204;2022-11-20T05:57:55;100573.34;;;19.16;100.00
10008;BME280;5043;41.766;26.204;2022-11-20T06:00:20;100595.09;;;19.45;100.00
10008;BME280;5043;41.766;26.204;2022-11-20T06:02:46;100558.28;;;19.23;100.00
10008;BME280;5043;41.766;26.204;2022-11-20T06:05:11;100630.03;;;19.52;100.00
10008;BME280;5043;41.766;26.204;2022-11-20T06:07:37;100563.31;;;19.26;100.00
10008;BME280;5043;41.766;26.204;2022-11-20T06:10:03;100598.41;;;19.55;100.00
10008;BME280;5043;41.766;26.204;2022-11-20T06:12:31;100603.59;;;19.57;100.00
10008;BME280;5043;41.766;26.204;2022-11-20T06:14:57;100542.25;;;19.23;100.00
10008;BME280;5043;41.766;26.204;2022-11-20T06:17:22;100625.16;;;19.63;100.00
10008;BME280;5043;41.766;26.204;2022-11-20T06:19:48;100619.63;;;19.65;100.00
10008;BME280;5043;41.766;26.204;2022-11-20T06:22:13;100646.25;;;19.66;100.00
10008;BME280;5043;41.766;26.204;2022-11-20T06:24:38;100649.91;;;19.65;100.00
10008;BME280;5043;41.766;26.204;2022-11-20T06:27:04;100611.47;;;19.50;100.00
10008;BME280;5043;41.766;26.204;2022-11-20T06:29:29;100628.81;;;19.62;100.00
10008;BME280;5043;41.766;26.204;2022-11-20T06:31:54;100607.94;;;19.58;100.00
10008;BME280;5043;41.766;26.204;2022-11-20T06:34:20;100659.28;;;19.77;100.00
10008;BME280;5043;41.766;26.204;2022-11-20T06:36:45;100582.72;;;19.44;100.00
10008;BME280;5043;41.766;26.204;2022-11-20T06:39:11;100645.03;;;19.85;100.00
10008;BME280;5043;41.766;26.204;2022-11-20T06:41:36;100655.03;;;19.91;100.00
10008;BME280;5043;41.766;26.204;2022-11-20T06:44:04;100679.66;;;19.86;100.00
10008;BME280;5043;41.766;26.204;2022-11-20T06:46:30;100664.78;;;19.84;100.00
10008;BME280;5043;41.766;26.204;2022-11-20T06:48:56;100658.25;;;19.86;100.00
10008;BME280;5043;41.766;26.204;2022-11-20T06:51:21;100666.28;;;19.86;100.00
10008;BME280;5043;41.766;26.204;2022-11-20T06:53:48;100662.75;;;19.86;100.00
10008;BME280;5043;41.766;26.204;2022-11-20T06:56:13;100661.25;;;19.92;100.00
10008;BME280;5043;41.766;26.204;2022-11-20T06:58:39;100631.19;;;19.65;100.00
10008;BME280;5043;41.766;26.204;2022-11-20T07:01:10;100624.84;;;19.58;100.00
10008;BME280;5043;41.766;26.204;2022-11-20T07:03:36;100623.19;;;19.57;99.75
10008;BME280;5043;41.766;26.204;2022-11-20T07:06:03;100714.28;;;19.96;99.95
10008;BME280;5043;41.766;26.204;2022-11-20T07:08:29;100683.66;;;19.99;99.61
10008;BME280;5043;41.766;26.204;2022-11-20T07:11:03;100649.53;;;19.84;98.86
10008;BME280;5043;41.766;26.204;2022-11-20T07:13:29;100671.06;;;20.07;98.28
10008;BME280;5043;41.766;26.204;2022-11-20T07:15:55;100694.97;;;20.17;98.00
10008;BME280;5043;41.766;26.204;2022-11-20T07:18:24;100695.00;;;20.25;97.42
10008;BME280;5043;41.766;26.204;2022-11-20T07:20:49;100672.72;;;20.24;97.04
10008;BME280;5043;41.766;26.204;2022-11-20T07:23:15;100682.94;;;20.21;96.94
10008;BME280;5043;41.766;26.204;2022-11-20T07:25:40;100679.38;;;20.36;97.04
10008;BME280;5043;41.766;26.204;2022-11-20T07:28:05;100646.44;;;20.12;97.15
10008;BME280;5043;41.766;26.204;2022-11-20T07:30:31;100688.94;;;20.39;96.98
10008;BME280;5043;41.766;26.204;2022-11-20T07:32:57;100689.59;;;20.41;97.03
10008;BME280;5043;41.766;26.204;2022-11-20T07:35:23;100669.53;;;20.29;97.25
10008;BME280;5043;41.766;26.204;2022-11-20T07:37:49;100684.94;;;20.35;97.25
10008;BME280;5043;41.766;26.204;2022-11-20T07:40:15;100651.97;;;20.18;97.05
10008;BME280;5043;41.766;26.204;2022-11-20T07:42:51;100687.09;;;20.39;97.31
10008;BME280;5043;41.766;26.204;2022-11-20T07:45:20;100700.13;;;20.42;97.18
10008;BME280;5043;41.766;26.204;2022-11-20T07:47:46;100641.09;;;20.12;97.22
10008;BME280;5043;41.766;26.204;2022-11-20T07:50:12;100688.41;;;20.43;97.35
10008;BME280;5043;41.766;26.204;2022-11-20T07:52:38;100692.25;;;20.49;97.16
10008;BME280;5043;41.766;26.204;2022-11-20T07:55:04;100647.28;;;20.12;97.16
10008;BME280;5043;41.766;26.204;2022-11-20T07:57:30;100655.81;;;20.16;97.66
10008;BME280;5043;41.766;26.204;2022-11-20T07:59:56;100717.09;;;20.35;98.04
10008;BME280;5043;41.766;26.204;2022-11-20T08:02:21;100698.00;;;20.30;98.56
10008;BME280;5043;41.766;26.204;2022-11-20T08:04:46;100710.22;;;20.32;98.75
10008;BME280;5043;41.766;26.204;2022-11-20T08:07:12;100722.66;;;20.25;99.11
10008;BME280;5043;41.766;26.204;2022-11-20T08:09:37;100714.41;;;20.27;99.38
10008;BME280;5043;41.766;26.204;2022-11-20T08:12:03;100708.53;;;20.31;99.47
10008;BME280;5043;41.766;26.204;2022-11-20T08:14:47;100670.41;;;20.05;99.72
10008;BME280;5043;41.766;26.204;2022-11-20T08:17:12;100673.28;;;20.04;100.00
10008;BME280;5043;41.766;26.204;2022-11-20T08:19:38;100660.25;;;19.93;100.00
10008;BME280;5043;41.766;26.204;2022-11-20T08:22:03;100724.44;;;20.33;100.00
10008;BME280;5043;41.766;26.204;2022-11-20T08:24:28;100718.25;;;20.32;99.88
10008;BME280;5043;41.766;26.204;2022-11-20T08:26:57;100734.50;;;20.31;100.00
10008;BME280;5043;41.766;26.204;2022-11-20T08:29:23;100724.97;;;20.28;100.00
10008;BME280;5043;41.766;26.204;2022-11-20T08:31:49;100686.63;;;20.20;100.00
10008;BME280;5043;41.766;26.204;2022-11-20T08:34:14;100723.91;;;20.45;100.00
10008;BME280;5043;41.766;26.204;2022-11-20T08:36:40;100711.03;;;20.41;100.00
10008;BME280;5043;41.766;26.204;2022-11-20T08:39:05;100726.25;;;20.48;100.00
10008;BME280;5043;41.766;26.204;2022-11-20T08:41:30;100672.38;;;20.19;100.00
10008;BME280;5043;41.766;26.204;2022-11-20T08:44:03;100713.38;;;20.36;100.00
10008;BME280;5043;41.766;26.204;2022-11-20T08:46:36;100720.75;;;20.34;100.00
10008;BME280;5043;41.766;26.204;2022-11-20T08:49:07;100714.03;;;20.46;100.00
10008;BME280;5043;41.766;26.204;2022-11-20T08:51:33;100696.91;;;20.47;100.00
10008;BME280;5043;41.766;26.204;2022-11-20T08:53:59;100696.38;;;20.51;100.00
10008;BME280;5043;41.766;26.204;2022-11-20T08:56:25;100697.88;;;20.54;100.00
10008;BME280;5043;41.766;26.204;2022-11-20T08:58:51;100675.97;;;20.50;100.00
10008;BME280;5043;41.766;26.204;2022-11-20T09:01:17;100656.97;;;20.21;100.00
10008;BME280;5043;41.766;26.204;2022-11-20T09:03:43;100689.50;;;20.57;100.00
10008;BME280;5043;41.766;26.204;2022-11-20T09:06:08;100683.81;;;20.60;99.80
10008;BME280;5043;41.766;26.204;2022-11-20T09:08:34;100686.81;;;20.57;99.74
10008;BME280;5043;41.766;26.204;2022-11-20T09:11:02;100684.47;;;20.62;99.97
10008;BME280;5043;41.766;26.204;2022-11-20T09:13:28;100675.91;;;20.58;99.73
10008;BME280;5043;41.766;26.204;2022-11-20T09:16:00;100673.06;;;20.60;99.62
10008;BME280;5043;41.766;26.204;2022-11-20T09:18:28;100671.91;;;20.63;99.49
10008;BME280;5043;41.766;26.204;2022-11-20T09:20:57;100667.13;;;20.73;99.46
10008;BME280;5043;41.766;26.204;2022-11-20T09:23:23;100654.41;;;20.75;99.14
10008;BME280;5043;41.766;26.204;2022-11-20T09:25:48;100645.44;;;20.82;98.08
10008;BME280;5043;41.766;26.204;2022-11-20T09:28:14;100639.09;;;20.83;97.62
10008;BME280;5043;41.766;26.204;2022-11-20T09:30:39;100620.31;;;20.83;96.81
10008;BME280;5043;41.766;26.204;2022-11-20T09:33:05;100617.13;;;20.80;96.97
10008;BME280;5043;41.766;26.204;2022-11-20T09:35:32;100634.13;;;20.95;96.74
10008;BME280;5043;41.766;26.204;2022-11-20T09:37:57;100576.63;;;20.75;96.38
10008;BME280;5043;41.766;26.204;2022-11-20T09:40:25;100611.44;;;21.05;95.73
10008;BME280;5043;41.766;26.204;2022-11-20T09:42:59;100614.81;;;21.07;95.37
10008;BME280;5043;41.766;26.204;2022-11-20T09:54:18;100596.44;;;21.34;93.28
10008;BME280;5043;41.766;26.204;2022-11-20T09:59:46;100616.00;;;21.42;91.56
10008;BME280;5043;41.766;26.204;2022-11-20T10:04:53;100592.75;;;21.35;89.24
10008;BME280;5043;41.766;26.204;2022-11-20T10:10:47;100536.53;;;21.18;86.54
10008;BME280;5043;41.766;26.204;2022-11-20T10:13:30;100573.78;;;21.51;86.20
10008;BME280;5043;41.766;26.204;2022-11-20T10:16:33;100599.81;;;21.65;85.17
10008;BME280;5043;41.766;26.204;2022-11-20T10:29:59;100581.22;;;21.92;82.80
10008;BME280;5043;41.766;26.204;2022-11-20T10:32:33;100587.06;;;21.96;82.81
10008;BME280;5043;41.766;26.204;2022-11-20T10:37:37;100550.06;;;21.69;82.88
10008;BME280;5043;41.766;26.204;2022-11-20T10:43:20;100590.03;;;22.01;79.93
10008;BME280;5043;41.766;26.204;2022-11-20T10:46:05;100587.34;;;22.01;80.00
10008;BME280;5043;41.766;26.204;2022-11-20T10:48:33;100575.56;;;22.02;80.33
10008;BME280;5043;41.766;26.204;2022-11-20T10:51:21;100573.78;;;22.09;79.78
10008;BME280;5043;41.766;26.204;2022-11-20T10:54:17;100589.91;;;22.09;79.75
10008;BME280;5043;41.766;26.204;2022-11-20T10:56:46;100583.72;;;22.09;80.05
10008;BME280;5043;41.766;26.204;2022-11-20T11:02:18;100554.34;;;22.07;79.43
10008;BME280;5043;41.766;26.204;2022-11-20T11:04:51;100568.34;;;22.03;79.30
10008;BME280;5043;41.766;26.204;2022-11-20T11:07:37;100570.28;;;22.09;79.14
10008;BME280;5043;41.766;26.204;2022-11-20T11:12:47;100559.72;;;22.07;79.91
10008;BME280;5043;41.766;26.204;2022-11-20T11:17:54;100547.19;;;22.14;79.77
10008;BME280;5043;41.766;26.204;2022-11-20T11:20:23;100540.53;;;22.10;79.50
10008;BME280;5043;41.766;26.204;2022-11-20T11:22:55;100545.72;;;22.12;79.88
10008;BME280;5043;41.766;26.204;2022-11-20T11:25:36;100524.78;;;22.07;79.47
10008;BME280;5043;41.766;26.204;2022-11-20T11:28:19;100543.63;;;22.28;78.79
10008;BME280;5043;41.766;26.204;2022-11-20T11:30:46;100546.22;;;22.36;78.98
10008;BME280;5043;41.766;26.204;2022-11-20T11:33:23;100547.19;;;22.50;78.17
10008;BME280;5043;41.766;26.204;2022-11-20T11:35:50;100556.28;;;22.49;77.80
10008;BME280;5043;41.766;26.204;2022-11-20T11:38:27;100533.91;;;22.48;77.46
10008;BME280;5043;41.766;26.204;2022-11-20T11:40:55;100530.84;;;22.66;76.56
10008;BME280;5043;41.766;26.204;2022-11-20T11:43:26;100548.63;;;22.67;75.94
10008;BME280;5043;41.766;26.204;2022-11-20T11:52:02;100535.94;;;22.82;75.08
10008;BME280;5043;41.766;26.204;2022-11-20T11:57:00;100460.75;;;22.74;73.31
10008;BME280;5043;41.766;26.204;2022-11-20T12:05:30;100493.53;;;23.12;72.39
10008;BME280;5043;41.766;26.204;2022-11-20T12:08:03;100496.47;;;23.17;71.90
10008;BME280;5043;41.766;26.204;2022-11-20T12:10:52;100450.00;;;23.02;71.11
10008;BME280;5043;41.766;26.204;2022-11-20T12:15:59;100512.00;;;23.43;69.91
10008;BME280;5043;41.766;26.204;2022-11-20T12:18:27;100443.31;;;22.98;69.96
10008;BME280;5043;41.766;26.204;2022-11-20T12:26:41;100424.44;;;22.91;69.38
10008;BME280;5043;41.766;26.204;2022-11-20T12:29:30;100474.53;;;23.20;69.78
10008;BME280;5043;41.766;26.204;2022-11-20T12:37:52;100425.03;;;22.87;69.38
10008;BME280;5043;41.766;26.204;2022-11-20T12:49:35;100401.81;;;22.79;67.02
10008;BME280;5043;41.766;26.204;2022-11-20T12:52:15;100436.69;;;22.94;67.49
10008;BME280;5043;41.766;26.204;2022-11-20T12:57:42;100414.06;;;22.88;66.12
10008;BME280;5043;41.766;26.204;2022-11-20T13:00:14;100442.00;;;23.15;66.61
10008;BME280;5043;41.766;26.204;2022-11-20T13:06:05;100431.34;;;23.00;68.63
10008;BME280;5043;41.766;26.204;2022-11-20T13:08:38;100466.16;;;23.02;68.95
10008;BME280;5043;41.766;26.204;2022-11-20T13:16:53;100416.25;;;22.72;69.69
10008;BME280;5043;41.766;26.204;2022-11-20T13:19:22;100457.81;;;22.97;69.54
10008;BME280;5043;41.766;26.204;2022-11-20T13:21:49;100400.53;;;22.75;69.44
10008;BME280;5043;41.766;26.204;2022-11-20T13:29:27;100412.72;;;22.99;68.49
10008;BME280;5043;41.766;26.204;2022-11-20T13:32:03;100404.78;;;22.91;67.82
10008;BME280;5043;41.766;26.204;2022-11-20T13:34:31;100455.53;;;23.28;67.78
10008;BME280;5043;41.766;26.204;2022-11-20T13:36:59;100467.34;;;23.27;67.58
10008;BME280;5043;41.766;26.204;2022-11-20T13:39:34;100414.81;;;23.03;67.91
10008;BME280;5043;41.766;26.204;2022-11-20T13:42:02;100406.06;;;22.95;68.02
10008;BME280;5043;41.766;26.204;2022-11-20T13:44:38;100418.47;;;22.96;67.71
10008;BME280;5043;41.766;26.204;2022-11-20T13:47:21;100467.91;;;23.16;68.01
10008;BME280;5043;41.766;26.204;2022-11-20T13:49:47;100465.50;;;23.27;68.05
10008;BME280;5043;41.766;26.204;2022-11-20T13:55:38;100459.50;;;23.32;62.27
10008;BME280;5043;41.766;26.204;2022-11-20T14:00:57;100460.91;;;23.28;61.85
10008;BME280;5043;41.766;26.204;2022-11-20T14:03:24;100463.22;;;23.31;61.78
10008;BME280;5043;41.766;26.204;2022-11-20T14:06:03;100459.47;;;23.25;62.22
10008;BME280;5043;41.766;26.204;2022-11-20T14:13:29;100463.59;;;23.28;62.05
10008;BME280;5043;41.766;26.204;2022-11-20T14:15:58;100462.78;;;23.27;62.98
10008;BME280;5043;41.766;26.204;2022-11-20T14:18:25;100461.34;;;23.32;65.21
10008;BME280;5043;41.766;26.204;2022-11-20T14:20:51;100413.06;;;22.89;66.95
10008;BME280;5043;41.766;26.204;2022-11-20T14:23:25;100454.97;;;23.05;66.80
10008;BME280;5043;41.766;26.204;2022-11-20T14:25:50;100466.97;;;23.02;65.40
10008;BME280;5043;41.766;26.204;2022-11-20T14:28:29;100465.31;;;23.01;66.70
10008;BME280;5043;41.766;26.204;2022-11-20T14:30:56;100462.56;;;22.95;68.00
10008;BME280;5043;41.766;26.204;2022-11-20T14:33:22;100372.28;;;22.37;68.38
10008;BME280;5043;41.766;26.204;2022-11-20T14:35:52;100449.28;;;22.66;69.22
10008;BME280;5043;41.766;26.204;2022-11-20T14:38:22;100426.44;;;22.55;69.79
10008;BME280;5043;41.766;26.204;2022-11-20T14:40:49;100355.59;;;21.99;70.15